Queen Jhansi — V7KJ3 — position and weather

sailwx.info

Track history (hours):
 
Tides and Currents Weather Stations Pressure Air Temp Water Temp Dewpoint Dewpoint Depression Visibility Wind Speed Wind Dir Waves Ship Positions

Queen Jhansi

Last reported at 2017-Oct-31 12:26 UTC. Time now 2017-Nov-20 17:11 UTC.
Position S 32°46' E 029°57'.
Warning: this ship's position is 20 days out of date.

Length 185 m; draft 10.3 m.

Type: Cargo ship. MMSI: 538006170.

Date/timePositionNaut miles runAvg speedWind from/ knotsBaromVisibWave heightAir tempDewpointWater temp
2017-Oct-31 12:26S 32°46' E 029°57'1413.1
2017-Oct-31 11:24S 32°41' E 030°12'513.0
2017-Oct-31 10:58S 32°38' E 030°17'1313.0
2017-Oct-31 10:01S 32°33' E 030°31'112.6
2017-Oct-31 09:54S 32°32' E 030°32'1012.7
2017-Oct-31 09:08S 32°28' E 030°43'212.9
2017-Oct-31 09:00S 32°27' E 030°45'713.2
2017-Oct-31 08:29S 32°25' E 030°52'1513.3
2017-Oct-31 07:20S 32°19' E 031°09'513.3
2017-Oct-31 06:59S 32°17' E 031°14'2713.2
2017-Oct-31 04:58S 32°05' E 031°42'712.9
2017-Oct-31 04:27S 32°02' E 031°49'613.1
2017-Oct-31 04:00S 31°60' E 031°55'713.0
2017-Oct-31 03:27S 31°57' E 032°03'612.8
2017-Oct-31 03:00S 31°54' E 032°09'1212.8
2017-Oct-31 02:04S 31°49' E 032°22'512.6
2017-Oct-31 01:42S 31°47' E 032°27'812.4
2017-Oct-31 01:05S 31°44' E 032°35'112.5
2017-Oct-31 00:59S 31°44' E 032°36'612.6
2017-Oct-31 00:30S 31°41' E 032°43'613.0
2017-Oct-31 00:00S 31°38' E 032°49'612.9
2017-Oct-30 23:30S 31°35' E 032°56'612.8
2017-Oct-30 23:00S 31°33' E 033°03'712.7
2017-Oct-30 22:29S 31°30' E 033°10'613.1
2017-Oct-30 22:00S 31°27' E 033°17'713.1
2017-Oct-30 21:30S 31°24' E 033°24'712.8
2017-Oct-30 20:58S 31°21' E 033°31'2412.7
2017-Oct-30 19:05S 31°11' E 033°56'  
Track history (hours):
 
Tides and Currents Weather Stations Pressure Air Temp Water Temp Dewpoint Dewpoint Depression Visibility Wind Speed Wind Dir Waves Ship Positions

Queen Jhansi

Last reported at 2017-Oct-31 12:26 UTC. Time now 2017-Nov-20 17:11 UTC.
Position S 32°46' E 029°57'.
Warning: this ship's position is 20 days out of date.

Length 185 m; draft 10.3 m.

Type: Cargo ship. MMSI: 538006170.

Date/timePositionNaut miles runAvg speedWind from/ knotsBaromVisibWave heightAir tempDewpointWater temp
2017-Oct-31 12:26S 32°46' E 029°57'1413.1
2017-Oct-31 11:24S 32°41' E 030°12'513.0
2017-Oct-31 10:58S 32°38' E 030°17'1313.0
2017-Oct-31 10:01S 32°33' E 030°31'112.6
2017-Oct-31 09:54S 32°32' E 030°32'1012.7
2017-Oct-31 09:08S 32°28' E 030°43'212.9
2017-Oct-31 09:00S 32°27' E 030°45'713.2
2017-Oct-31 08:29S 32°25' E 030°52'1513.3
2017-Oct-31 07:20S 32°19' E 031°09'513.3
2017-Oct-31 06:59S 32°17' E 031°14'2713.2
2017-Oct-31 04:58S 32°05' E 031°42'712.9
2017-Oct-31 04:27S 32°02' E 031°49'613.1
2017-Oct-31 04:00S 31°60' E 031°55'713.0
2017-Oct-31 03:27S 31°57' E 032°03'612.8
2017-Oct-31 03:00S 31°54' E 032°09'1212.8
2017-Oct-31 02:04S 31°49' E 032°22'512.6
2017-Oct-31 01:42S 31°47' E 032°27'812.4
2017-Oct-31 01:05S 31°44' E 032°35'112.5
2017-Oct-31 00:59S 31°44' E 032°36'612.6
2017-Oct-31 00:30S 31°41' E 032°43'613.0
2017-Oct-31 00:00S 31°38' E 032°49'612.9
2017-Oct-30 23:30S 31°35' E 032°56'612.8
2017-Oct-30 23:00S 31°33' E 033°03'712.7
2017-Oct-30 22:29S 31°30' E 033°10'613.1
2017-Oct-30 22:00S 31°27' E 033°17'713.1
2017-Oct-30 21:30S 31°24' E 033°24'712.8
2017-Oct-30 20:58S 31°21' E 033°31'2412.7
2017-Oct-30 19:05S 31°11' E 033°56'  

Dump ship's entire track history